sensor_id;sensor_type;location;lat;lon;timestamp;P1;durP1;ratioP1;P2;durP2;ratioP2
42514;SDS011;28144;49.920;18.730;2023-07-24T00:02:12;5.25;;;3.85;;
42514;SDS011;28144;49.920;18.730;2023-07-24T00:04:38;4.72;;;3.63;;
42514;SDS011;28144;49.920;18.730;2023-07-24T00:07:04;6.38;;;3.92;;
42514;SDS011;28144;49.920;18.730;2023-07-24T00:09:30;6.03;;;4.15;;
42514;SDS011;28144;49.920;18.730;2023-07-24T00:11:56;6.47;;;4.00;;
42514;SDS011;28144;49.920;18.730;2023-07-24T00:14:21;7.32;;;4.25;;
42514;SDS011;28144;49.920;18.730;2023-07-24T00:16:47;6.03;;;3.70;;
42514;SDS011;28144;49.920;18.730;2023-07-24T00:19:13;5.90;;;3.70;;
42514;SDS011;28144;49.920;18.730;2023-07-24T00:21:39;5.03;;;3.42;;
42514;SDS011;28144;49.920;18.730;2023-07-24T00:24:05;5.43;;;3.55;;
42514;SDS011;28144;49.920;18.730;2023-07-24T00:26:31;5.88;;;3.90;;
42514;SDS011;28144;49.920;18.730;2023-07-24T00:28:57;5.05;;;3.20;;
42514;SDS011;28144;49.920;18.730;2023-07-24T00:31:22;9.02;;;3.88;;
42514;SDS011;28144;49.920;18.730;2023-07-24T00:33:48;5.40;;;3.38;;
42514;SDS011;28144;49.920;18.730;2023-07-24T00:39:55;7.53;;;3.78;;
42514;SDS011;28144;49.920;18.730;2023-07-24T00:42:21;5.05;;;3.55;;
42514;SDS011;28144;49.920;18.730;2023-07-24T00:44:47;4.65;;;3.72;;
42514;SDS011;28144;49.920;18.730;2023-07-24T00:47:13;8.25;;;3.67;;
42514;SDS011;28144;49.920;18.730;2023-07-24T00:49:39;7.10;;;4.13;;
42514;SDS011;28144;49.920;18.730;2023-07-24T00:52:05;5.65;;;3.80;;
42514;SDS011;28144;49.920;18.730;2023-07-24T00:54:31;8.68;;;3.92;;
42514;SDS011;28144;49.920;18.730;2023-07-24T00:56:58;7.75;;;3.83;;
42514;SDS011;28144;49.920;18.730;2023-07-24T00:59:24;8.13;;;4.10;;
42514;SDS011;28144;49.920;18.730;2023-07-24T01:01:50;10.73;;;4.00;;
42514;SDS011;28144;49.920;18.730;2023-07-24T01:04:15;7.03;;;3.25;;
42514;SDS011;28144;49.920;18.730;2023-07-24T01:06:42;6.18;;;3.90;;
42514;SDS011;28144;49.920;18.730;2023-07-24T01:09:08;4.57;;;3.60;;
42514;SDS011;28144;49.920;18.730;2023-07-24T01:12:18;6.82;;;3.88;;
42514;SDS011;28144;49.920;18.730;2023-07-24T01:14:44;6.72;;;3.72;;
42514;SDS011;28144;49.920;18.730;2023-07-24T01:17:14;7.70;;;3.75;;
42514;SDS011;28144;49.920;18.730;2023-07-24T01:19:47;9.52;;;4.10;;
42514;SDS011;28144;49.920;18.730;2023-07-24T01:23:03;7.78;;;3.75;;
42514;SDS011;28144;49.920;18.730;2023-07-24T01:25:09;5.90;;;3.58;;
42514;SDS011;28144;49.920;18.730;2023-07-24T01:28:06;8.82;;;3.65;;
42514;SDS011;28144;49.920;18.730;2023-07-24T01:30:32;8.13;;;3.65;;
42514;SDS011;28144;49.920;18.730;2023-07-24T01:32:58;14.38;;;4.60;;
42514;SDS011;28144;49.920;18.730;2023-07-24T01:35:24;4.65;;;3.58;;
42514;SDS011;28144;49.920;18.730;2023-07-24T01:37:51;6.70;;;3.45;;
42514;SDS011;28144;49.920;18.730;2023-07-24T01:40:17;6.90;;;3.67;;
42514;SDS011;28144;49.920;18.730;2023-07-24T01:45:09;7.38;;;3.88;;
42514;SDS011;28144;49.920;18.730;2023-07-24T01:47:36;9.30;;;4.07;;
42514;SDS011;28144;49.920;18.730;2023-07-24T01:50:03;7.57;;;3.30;;
42514;SDS011;28144;49.920;18.730;2023-07-24T01:52:29;7.65;;;3.97;;
42514;SDS011;28144;49.920;18.730;2023-07-24T01:54:55;8.65;;;3.65;;
42514;SDS011;28144;49.920;18.730;2023-07-24T01:57:21;7.30;;;3.75;;
42514;SDS011;28144;49.920;18.730;2023-07-24T01:59:47;7.10;;;4.20;;
42514;SDS011;28144;49.920;18.730;2023-07-24T02:02:14;4.80;;;3.78;;
42514;SDS011;28144;49.920;18.730;2023-07-24T02:04:40;5.53;;;4.05;;
42514;SDS011;28144;49.920;18.730;2023-07-24T02:07:06;7.63;;;4.00;;
42514;SDS011;28144;49.920;18.730;2023-07-24T02:09:31;6.18;;;3.95;;
42514;SDS011;28144;49.920;18.730;2023-07-24T02:12:01;5.88;;;4.00;;
42514;SDS011;28144;49.920;18.730;2023-07-24T02:14:27;8.93;;;4.07;;
42514;SDS011;28144;49.920;18.730;2023-07-24T02:16:53;6.95;;;4.20;;
42514;SDS011;28144;49.920;18.730;2023-07-24T02:19:19;8.23;;;4.50;;
42514;SDS011;28144;49.920;18.730;2023-07-24T02:21:45;5.50;;;4.20;;
42514;SDS011;28144;49.920;18.730;2023-07-24T02:24:10;6.82;;;4.20;;
42514;SDS011;28144;49.920;18.730;2023-07-24T02:26:36;8.63;;;5.13;;
42514;SDS011;28144;49.920;18.730;2023-07-24T02:29:02;6.07;;;3.93;;
42514;SDS011;28144;49.920;18.730;2023-07-24T02:31:28;6.70;;;3.78;;
42514;SDS011;28144;49.920;18.730;2023-07-24T02:33:54;8.13;;;3.97;;
42514;SDS011;28144;49.920;18.730;2023-07-24T02:36:20;6.60;;;4.10;;
42514;SDS011;28144;49.920;18.730;2023-07-24T02:38:46;8.88;;;3.92;;
42514;SDS011;28144;49.920;18.730;2023-07-24T02:41:12;7.13;;;3.97;;
42514;SDS011;28144;49.920;18.730;2023-07-24T02:43:38;6.53;;;3.95;;
42514;SDS011;28144;49.920;18.730;2023-07-24T02:46:04;5.32;;;3.45;;
42514;SDS011;28144;49.920;18.730;2023-07-24T02:48:30;5.85;;;4.35;;
42514;SDS011;28144;49.920;18.730;2023-07-24T02:50:56;10.10;;;4.22;;
42514;SDS011;28144;49.920;18.730;2023-07-24T02:53:22;7.72;;;4.90;;
42514;SDS011;28144;49.920;18.730;2023-07-24T02:55:48;10.80;;;4.45;;
42514;SDS011;28144;49.920;18.730;2023-07-24T02:58:14;6.68;;;4.15;;
42514;SDS011;28144;49.920;18.730;2023-07-24T03:00:40;9.95;;;4.55;;
42514;SDS011;28144;49.920;18.730;2023-07-24T03:03:06;6.28;;;4.53;;
42514;SDS011;28144;49.920;18.730;2023-07-24T03:05:35;6.25;;;4.80;;
42514;SDS011;28144;49.920;18.730;2023-07-24T03:08:01;6.05;;;4.03;;
42514;SDS011;28144;49.920;18.730;2023-07-24T03:10:27;6.15;;;4.07;;
42514;SDS011;28144;49.920;18.730;2023-07-24T03:12:53;6.82;;;4.18;;
42514;SDS011;28144;49.920;18.730;2023-07-24T03:15:19;11.10;;;4.63;;
42514;SDS011;28144;49.920;18.730;2023-07-24T03:17:45;9.35;;;4.25;;
42514;SDS011;28144;49.920;18.730;2023-07-24T03:20:15;6.88;;;3.75;;
42514;SDS011;28144;49.920;18.730;2023-07-24T03:22:42;8.38;;;4.20;;
42514;SDS011;28144;49.920;18.730;2023-07-24T03:25:09;7.53;;;4.38;;
42514;SDS011;28144;49.920;18.730;2023-07-24T03:27:35;6.18;;;4.78;;
42514;SDS011;28144;49.920;18.730;2023-07-24T03:30:01;6.68;;;4.53;;
42514;SDS011;28144;49.920;18.730;2023-07-24T03:32:32;7.72;;;4.55;;
42514;SDS011;28144;49.920;18.730;2023-07-24T03:34:58;4.90;;;4.18;;
42514;SDS011;28144;49.920;18.730;2023-07-24T03:37:24;5.60;;;4.15;;
42514;SDS011;28144;49.920;18.730;2023-07-24T03:39:50;7.47;;;4.10;;
42514;SDS011;28144;49.920;18.730;2023-07-24T03:42:24;6.82;;;4.60;;
42514;SDS011;28144;49.920;18.730;2023-07-24T03:44:52;8.73;;;4.57;;
42514;SDS011;28144;49.920;18.730;2023-07-24T03:47:18;6.95;;;3.88;;
42514;SDS011;28144;49.920;18.730;2023-07-24T03:49:44;4.93;;;4.28;;
42514;SDS011;28144;49.920;18.730;2023-07-24T03:52:10;8.50;;;4.82;;
42514;SDS011;28144;49.920;18.730;2023-07-24T03:54:36;6.18;;;4.40;;
42514;SDS011;28144;49.920;18.730;2023-07-24T03:57:02;6.50;;;4.18;;
42514;SDS011;28144;49.920;18.730;2023-07-24T04:01:54;9.73;;;4.30;;
42514;SDS011;28144;49.920;18.730;2023-07-24T04:04:21;10.25;;;4.47;;
42514;SDS011;28144;49.920;18.730;2023-07-24T04:06:46;6.28;;;4.35;;
42514;SDS011;28144;49.920;18.730;2023-07-24T04:09:13;7.85;;;4.82;;
42514;SDS011;28144;49.920;18.730;2023-07-24T04:11:44;7.25;;;4.80;;
42514;SDS011;28144;49.920;18.730;2023-07-24T04:14:11;7.43;;;4.65;;
42514;SDS011;28144;49.920;18.730;2023-07-24T04:16:36;9.38;;;4.80;;
42514;SDS011;28144;49.920;18.730;2023-07-24T04:19:03;5.85;;;4.82;;
42514;SDS011;28144;49.920;18.730;2023-07-24T04:21:29;6.80;;;4.55;;
42514;SDS011;28144;49.920;18.730;2023-07-24T04:23:55;8.10;;;4.85;;
42514;SDS011;28144;49.920;18.730;2023-07-24T04:26:21;7.72;;;4.72;;
42514;SDS011;28144;49.920;18.730;2023-07-24T04:28:47;9.07;;;4.60;;
42514;SDS011;28144;49.920;18.730;2023-07-24T04:31:13;11.38;;;5.03;;
42514;SDS011;28144;49.920;18.730;2023-07-24T04:33:39;11.27;;;5.22;;
42514;SDS011;28144;49.920;18.730;2023-07-24T04:36:05;12.02;;;4.85;;
42514;SDS011;28144;49.920;18.730;2023-07-24T04:38:34;7.75;;;4.70;;
42514;SDS011;28144;49.920;18.730;2023-07-24T04:41:00;9.63;;;4.65;;
42514;SDS011;28144;49.920;18.730;2023-07-24T04:43:30;8.68;;;4.78;;
42514;SDS011;28144;49.920;18.730;2023-07-24T04:45:55;5.53;;;4.45;;
42514;SDS011;28144;49.920;18.730;2023-07-24T04:48:22;8.52;;;5.57;;
42514;SDS011;28144;49.920;18.730;2023-07-24T04:50:53;7.15;;;4.70;;
42514;SDS011;28144;49.920;18.730;2023-07-24T04:53:21;5.72;;;4.55;;
42514;SDS011;28144;49.920;18.730;2023-07-24T04:58:16;7.38;;;4.80;;
42514;SDS011;28144;49.920;18.730;2023-07-24T05:00:42;6.90;;;5.22;;
42514;SDS011;28144;49.920;18.730;2023-07-24T05:03:09;9.10;;;4.40;;
42514;SDS011;28144;49.920;18.730;2023-07-24T05:05:39;7.30;;;4.43;;
42514;SDS011;28144;49.920;18.730;2023-07-24T05:08:06;7.22;;;4.78;;
42514;SDS011;28144;49.920;18.730;2023-07-24T05:10:35;7.82;;;4.68;;
42514;SDS011;28144;49.920;18.730;2023-07-24T05:13:09;26.40;;;5.22;;
42514;SDS011;28144;49.920;18.730;2023-07-24T05:15:34;8.32;;;4.70;;
42514;SDS011;28144;49.920;18.730;2023-07-24T05:18:01;13.45;;;4.85;;
42514;SDS011;28144;49.920;18.730;2023-07-24T05:20:27;6.32;;;4.53;;
42514;SDS011;28144;49.920;18.730;2023-07-24T05:22:53;10.57;;;5.25;;
42514;SDS011;28144;49.920;18.730;2023-07-24T05:25:18;6.25;;;4.95;;
42514;SDS011;28144;49.920;18.730;2023-07-24T05:27:45;9.82;;;4.20;;
42514;SDS011;28144;49.920;18.730;2023-07-24T05:30:10;8.60;;;5.18;;
42514;SDS011;28144;49.920;18.730;2023-07-24T05:32:36;8.00;;;4.65;;
42514;SDS011;28144;49.920;18.730;2023-07-24T05:35:02;7.00;;;4.70;;
42514;SDS011;28144;49.920;18.730;2023-07-24T05:39:54;8.38;;;4.88;;
42514;SDS011;28144;49.920;18.730;2023-07-24T05:42:20;8.57;;;4.70;;
42514;SDS011;28144;49.920;18.730;2023-07-24T05:44:46;9.45;;;4.45;;
42514;SDS011;28144;49.920;18.730;2023-07-24T05:47:12;6.68;;;5.03;;
42514;SDS011;28144;49.920;18.730;2023-07-24T05:49:37;6.15;;;4.57;;
42514;SDS011;28144;49.920;18.730;2023-07-24T05:52:03;6.10;;;4.65;;
42514;SDS011;28144;49.920;18.730;2023-07-24T05:54:29;10.45;;;5.25;;
42514;SDS011;28144;49.920;18.730;2023-07-24T05:56:55;12.25;;;5.20;;
42514;SDS011;28144;49.920;18.730;2023-07-24T05:59:21;6.55;;;4.50;;
42514;SDS011;28144;49.920;18.730;2023-07-24T06:01:47;8.57;;;4.57;;
42514;SDS011;28144;49.920;18.730;2023-07-24T06:04:12;6.43;;;4.95;;
42514;SDS011;28144;49.920;18.730;2023-07-24T06:06:38;7.97;;;4.90;;
42514;SDS011;28144;49.920;18.730;2023-07-24T06:09:05;9.55;;;5.07;;
42514;SDS011;28144;49.920;18.730;2023-07-24T06:11:31;7.93;;;5.18;;
42514;SDS011;28144;49.920;18.730;2023-07-24T06:13:57;6.15;;;4.65;;
42514;SDS011;28144;49.920;18.730;2023-07-24T06:18:48;7.78;;;4.60;;
42514;SDS011;28144;49.920;18.730;2023-07-24T06:21:15;9.35;;;5.10;;
42514;SDS011;28144;49.920;18.730;2023-07-24T06:23:40;13.35;;;4.80;;
42514;SDS011;28144;49.920;18.730;2023-07-24T06:26:08;10.85;;;5.30;;
42514;SDS011;28144;49.920;18.730;2023-07-24T06:28:33;7.20;;;4.88;;
42514;SDS011;28144;49.920;18.730;2023-07-24T06:30:59;8.07;;;4.90;;
42514;SDS011;28144;49.920;18.730;2023-07-24T06:33:25;9.30;;;4.35;;
42514;SDS011;28144;49.920;18.730;2023-07-24T06:38:16;7.18;;;4.78;;
42514;SDS011;28144;49.920;18.730;2023-07-24T06:40:45;10.18;;;5.38;;
42514;SDS011;28144;49.920;18.730;2023-07-24T06:43:12;7.82;;;4.90;;
42514;SDS011;28144;49.920;18.730;2023-07-24T06:45:39;7.43;;;4.88;;
42514;SDS011;28144;49.920;18.730;2023-07-24T06:48:05;8.30;;;5.18;;
42514;SDS011;28144;49.920;18.730;2023-07-24T06:50:34;8.77;;;4.95;;
42514;SDS011;28144;49.920;18.730;2023-07-24T06:53:01;5.78;;;4.75;;
42514;SDS011;28144;49.920;18.730;2023-07-24T07:03:14;7.57;;;4.93;;
42514;SDS011;28144;49.920;18.730;2023-07-24T07:05:47;12.13;;;5.07;;
42514;SDS011;28144;49.920;18.730;2023-07-24T07:08:14;10.02;;;4.90;;
42514;SDS011;28144;49.920;18.730;2023-07-24T07:10:45;6.57;;;4.70;;
42514;SDS011;28144;49.920;18.730;2023-07-24T07:13:14;6.70;;;4.45;;
42514;SDS011;28144;49.920;18.730;2023-07-24T07:15:47;9.02;;;4.68;;
42514;SDS011;28144;49.920;18.730;2023-07-24T07:18:36;6.45;;;4.82;;
42514;SDS011;28144;49.920;18.730;2023-07-24T07:21:10;7.00;;;4.88;;
42514;SDS011;28144;49.920;18.730;2023-07-24T07:23:38;8.45;;;4.55;;
42514;SDS011;28144;49.920;18.730;2023-07-24T07:26:11;5.43;;;4.53;;
42514;SDS011;28144;49.920;18.730;2023-07-24T07:29:00;9.00;;;4.65;;
42514;SDS011;28144;49.920;18.730;2023-07-24T07:31:28;7.15;;;5.10;;
42514;SDS011;28144;49.920;18.730;2023-07-24T07:34:02;6.57;;;4.90;;
42514;SDS011;28144;49.920;18.730;2023-07-24T07:36:29;9.38;;;5.38;;
42514;SDS011;28144;49.920;18.730;2023-07-24T07:38:57;5.95;;;5.00;;
42514;SDS011;28144;49.920;18.730;2023-07-24T07:42:07;6.00;;;4.32;;
42514;SDS011;28144;49.920;18.730;2023-07-24T07:44:35;7.55;;;5.05;;
42514;SDS011;28144;49.920;18.730;2023-07-24T07:50:58;7.00;;;4.63;;
42514;SDS011;28144;49.920;18.730;2023-07-24T07:53:26;7.78;;;5.13;;
42514;SDS011;28144;49.920;18.730;2023-07-24T07:55:55;7.20;;;5.00;;
42514;SDS011;28144;49.920;18.730;2023-07-24T07:58:28;7.93;;;5.15;;
42514;SDS011;28144;49.920;18.730;2023-07-24T08:01:19;7.03;;;5.40;;
42514;SDS011;28144;49.920;18.730;2023-07-24T08:04:02;6.38;;;4.82;;
42514;SDS011;28144;49.920;18.730;2023-07-24T08:07:31;6.93;;;5.03;;
42514;SDS011;28144;49.920;18.730;2023-07-24T08:10:02;6.63;;;5.18;;
42514;SDS011;28144;49.920;18.730;2023-07-24T08:12:34;9.68;;;4.80;;
42514;SDS011;28144;49.920;18.730;2023-07-24T08:15:11;7.95;;;4.90;;
42514;SDS011;28144;49.920;18.730;2023-07-24T08:17:41;8.68;;;4.97;;
42514;SDS011;28144;49.920;18.730;2023-07-24T08:23:48;8.70;;;6.07;;
42514;SDS011;28144;49.920;18.730;2023-07-24T08:26:20;10.98;;;5.38;;
42514;SDS011;28144;49.920;18.730;2023-07-24T08:28:50;7.32;;;5.80;;
42514;SDS011;28144;49.920;18.730;2023-07-24T08:35:23;9.00;;;5.45;;
42514;SDS011;28144;49.920;18.730;2023-07-24T08:37:57;8.90;;;5.82;;
42514;SDS011;28144;49.920;18.730;2023-07-24T08:44:01;7.47;;;5.65;;
42514;SDS011;28144;49.920;18.730;2023-07-24T08:47:06;7.90;;;5.82;;
42514;SDS011;28144;49.920;18.730;2023-07-24T08:49:47;8.02;;;5.30;;
42514;SDS011;28144;49.920;18.730;2023-07-24T08:52:13;7.15;;;5.25;;
42514;SDS011;28144;49.920;18.730;2023-07-24T08:57:08;15.43;;;6.30;;
42514;SDS011;28144;49.920;18.730;2023-07-24T08:59:34;19.25;;;6.28;;
42514;SDS011;28144;49.920;18.730;2023-07-24T09:02:00;12.30;;;6.10;;
42514;SDS011;28144;49.920;18.730;2023-07-24T09:04:26;12.73;;;6.05;;
42514;SDS011;28144;49.920;18.730;2023-07-24T09:06:52;11.15;;;5.85;;
42514;SDS011;28144;49.920;18.730;2023-07-24T09:09:20;12.35;;;5.93;;
42514;SDS011;28144;49.920;18.730;2023-07-24T09:11:46;7.35;;;5.47;;
42514;SDS011;28144;49.920;18.730;2023-07-24T09:14:20;9.55;;;6.47;;
42514;SDS011;28144;49.920;18.730;2023-07-24T09:17:04;12.73;;;6.60;;
42514;SDS011;28144;49.920;18.730;2023-07-24T09:19:30;10.25;;;5.72;;
42514;SDS011;28144;49.920;18.730;2023-07-24T09:21:56;9.80;;;5.70;;
42514;SDS011;28144;49.920;18.730;2023-07-24T09:24:33;15.48;;;6.32;;
42514;SDS011;28144;49.920;18.730;2023-07-24T09:26:58;9.40;;;5.65;;
42514;SDS011;28144;49.920;18.730;2023-07-24T09:29:30;16.33;;;6.53;;
42514;SDS011;28144;49.920;18.730;2023-07-24T09:31:56;9.57;;;5.95;;
42514;SDS011;28144;49.920;18.730;2023-07-24T09:34:22;12.52;;;5.97;;
42514;SDS011;28144;49.920;18.730;2023-07-24T09:36:48;7.70;;;5.57;;
42514;SDS011;28144;49.920;18.730;2023-07-24T09:39:14;10.68;;;6.03;;
42514;SDS011;28144;49.920;18.730;2023-07-24T09:41:39;17.63;;;8.02;;
42514;SDS011;28144;49.920;18.730;2023-07-24T09:46:36;11.10;;;6.40;;
42514;SDS011;28144;49.920;18.730;2023-07-24T09:49:02;9.63;;;6.85;;
42514;SDS011;28144;49.920;18.730;2023-07-24T09:51:28;17.67;;;6.18;;
42514;SDS011;28144;49.920;18.730;2023-07-24T09:54:06;8.63;;;6.32;;
42514;SDS011;28144;49.920;18.730;2023-07-24T09:56:45;13.07;;;6.32;;
42514;SDS011;28144;49.920;18.730;2023-07-24T09:59:12;9.82;;;6.20;;
42514;SDS011;28144;49.920;18.730;2023-07-24T10:01:38;12.70;;;6.82;;
42514;SDS011;28144;49.920;18.730;2023-07-24T10:04:04;8.90;;;6.22;;
42514;SDS011;28144;49.920;18.730;2023-07-24T10:06:30;8.98;;;6.40;;
42514;SDS011;28144;49.920;18.730;2023-07-24T10:11:22;9.30;;;6.75;;
42514;SDS011;28144;49.920;18.730;2023-07-24T10:13:49;8.98;;;6.28;;
42514;SDS011;28144;49.920;18.730;2023-07-24T10:16:16;11.70;;;6.68;;
42514;SDS011;28144;49.920;18.730;2023-07-24T10:18:45;12.40;;;6.78;;
42514;SDS011;28144;49.920;18.730;2023-07-24T10:21:12;11.50;;;7.07;;
42514;SDS011;28144;49.920;18.730;2023-07-24T10:23:42;10.95;;;7.60;;
42514;SDS011;28144;49.920;18.730;2023-07-24T10:26:09;30.13;;;10.63;;
42514;SDS011;28144;49.920;18.730;2023-07-24T10:28:39;10.82;;;6.78;;
42514;SDS011;28144;49.920;18.730;2023-07-24T10:31:06;14.02;;;7.80;;
42514;SDS011;28144;49.920;18.730;2023-07-24T10:33:36;18.58;;;7.13;;
42514;SDS011;28144;49.920;18.730;2023-07-24T10:36:09;12.25;;;6.78;;
42514;SDS011;28144;49.920;18.730;2023-07-24T10:38:37;9.90;;;6.97;;
42514;SDS011;28144;49.920;18.730;2023-07-24T10:41:05;13.27;;;6.85;;
42514;SDS011;28144;49.920;18.730;2023-07-24T10:43:42;11.77;;;6.55;;
42514;SDS011;28144;49.920;18.730;2023-07-24T10:46:12;10.23;;;6.50;;
42514;SDS011;28144;49.920;18.730;2023-07-24T10:48:44;10.43;;;6.63;;
42514;SDS011;28144;49.920;18.730;2023-07-24T10:51:15;8.00;;;6.10;;
42514;SDS011;28144;49.920;18.730;2023-07-24T10:53:43;9.38;;;6.43;;
42514;SDS011;28144;49.920;18.730;2023-07-24T10:56:10;8.15;;;6.75;;
42514;SDS011;28144;49.920;18.730;2023-07-24T10:58:36;9.77;;;6.70;;
42514;SDS011;28144;49.920;18.730;2023-07-24T11:03:31;10.25;;;6.63;;
42514;SDS011;28144;49.920;18.730;2023-07-24T11:08:23;9.38;;;6.85;;
42514;SDS011;28144;49.920;18.730;2023-07-24T11:13:27;11.10;;;7.38;;
42514;SDS011;28144;49.920;18.730;2023-07-24T11:15:53;10.13;;;7.05;;
42514;SDS011;28144;49.920;18.730;2023-07-24T11:18:21;8.05;;;6.40;;
42514;SDS011;28144;49.920;18.730;2023-07-24T11:20:51;10.25;;;7.13;;
42514;SDS011;28144;49.920;18.730;2023-07-24T11:23:20;10.50;;;6.93;;
42514;SDS011;28144;49.920;18.730;2023-07-24T11:25:49;11.07;;;7.32;;
42514;SDS011;28144;49.920;18.730;2023-07-24T11:28:16;9.40;;;6.68;;
42514;SDS011;28144;49.920;18.730;2023-07-24T11:30:49;9.52;;;6.95;;
42514;SDS011;28144;49.920;18.730;2023-07-24T11:33:17;12.82;;;7.30;;
42514;SDS011;28144;49.920;18.730;2023-07-24T11:35:44;11.90;;;7.38;;
42514;SDS011;28144;49.920;18.730;2023-07-24T11:38:10;11.60;;;6.80;;
42514;SDS011;28144;49.920;18.730;2023-07-24T11:40:40;12.48;;;7.70;;
42514;SDS011;28144;49.920;18.730;2023-07-24T11:43:17;10.70;;;7.28;;
42514;SDS011;28144;49.920;18.730;2023-07-24T11:45:45;22.38;;;7.80;;
42514;SDS011;28144;49.920;18.730;2023-07-24T11:48:14;9.05;;;7.28;;
42514;SDS011;28144;49.920;18.730;2023-07-24T11:50:44;10.07;;;7.60;;
42514;SDS011;28144;49.920;18.730;2023-07-24T11:53:19;10.07;;;6.93;;
42514;SDS011;28144;49.920;18.730;2023-07-24T11:55:47;12.48;;;7.22;;
42514;SDS011;28144;49.920;18.730;2023-07-24T11:58:14;10.75;;;7.57;;
42514;SDS011;28144;49.920;18.730;2023-07-24T12:00:41;12.48;;;7.50;;
42514;SDS011;28144;49.920;18.730;2023-07-24T12:03:08;10.70;;;7.68;;
42514;SDS011;28144;49.920;18.730;2023-07-24T12:05:37;10.50;;;7.70;;
42514;SDS011;28144;49.920;18.730;2023-07-24T12:08:07;18.23;;;7.93;;
42514;SDS011;28144;49.920;18.730;2023-07-24T12:10:35;12.05;;;7.88;;
42514;SDS011;28144;49.920;18.730;2023-07-24T12:13:02;10.38;;;8.13;;
42514;SDS011;28144;49.920;18.730;2023-07-24T12:15:28;11.50;;;7.72;;
42514;SDS011;28144;49.920;18.730;2023-07-24T12:17:54;12.57;;;7.53;;
42514;SDS011;28144;49.920;18.730;2023-07-24T12:20:22;10.95;;;7.70;;
42514;SDS011;28144;49.920;18.730;2023-07-24T12:22:48;9.20;;;7.45;;
42514;SDS011;28144;49.920;18.730;2023-07-24T12:25:14;14.13;;;7.75;;
42514;SDS011;28144;49.920;18.730;2023-07-24T12:27:43;10.57;;;7.03;;
42514;SDS011;28144;49.920;18.730;2023-07-24T12:30:09;9.35;;;7.60;;
42514;SDS011;28144;49.920;18.730;2023-07-24T12:32:36;9.95;;;7.43;;
42514;SDS011;28144;49.920;18.730;2023-07-24T12:35:01;11.30;;;7.57;;
42514;SDS011;28144;49.920;18.730;2023-07-24T12:37:28;11.85;;;7.97;;
42514;SDS011;28144;49.920;18.730;2023-07-24T12:39:54;10.85;;;8.13;;
42514;SDS011;28144;49.920;18.730;2023-07-24T12:42:20;10.75;;;8.13;;
42514;SDS011;28144;49.920;18.730;2023-07-24T12:44:46;9.18;;;7.60;;
42514;SDS011;28144;49.920;18.730;2023-07-24T12:47:12;15.38;;;7.60;;
42514;SDS011;28144;49.920;18.730;2023-07-24T12:49:38;9.82;;;7.68;;
42514;SDS011;28144;49.920;18.730;2023-07-24T12:52:05;13.40;;;7.95;;
42514;SDS011;28144;49.920;18.730;2023-07-24T12:54:31;10.77;;;7.95;;
42514;SDS011;28144;49.920;18.730;2023-07-24T12:56:57;13.57;;;7.65;;
42514;SDS011;28144;49.920;18.730;2023-07-24T12:59:23;13.25;;;7.82;;
42514;SDS011;28144;49.920;18.730;2023-07-24T13:01:49;10.95;;;7.53;;
42514;SDS011;28144;49.920;18.730;2023-07-24T13:04:14;12.32;;;8.05;;
42514;SDS011;28144;49.920;18.730;2023-07-24T13:06:40;9.73;;;8.05;;
42514;SDS011;28144;49.920;18.730;2023-07-24T13:09:07;10.30;;;8.43;;
42514;SDS011;28144;49.920;18.730;2023-07-24T13:11:33;9.82;;;7.80;;
42514;SDS011;28144;49.920;18.730;2023-07-24T13:13:58;15.93;;;8.55;;
42514;SDS011;28144;49.920;18.730;2023-07-24T13:16:24;11.93;;;8.23;;
42514;SDS011;28144;49.920;18.730;2023-07-24T13:18:50;12.07;;;8.05;;
42514;SDS011;28144;49.920;18.730;2023-07-24T13:21:22;10.25;;;8.50;;
42514;SDS011;28144;49.920;18.730;2023-07-24T13:23:48;14.48;;;8.52;;
42514;SDS011;28144;49.920;18.730;2023-07-24T13:26:14;11.50;;;8.10;;
42514;SDS011;28144;49.920;18.730;2023-07-24T13:28:40;18.83;;;8.00;;
42514;SDS011;28144;49.920;18.730;2023-07-24T13:31:10;10.32;;;7.95;;
42514;SDS011;28144;49.920;18.730;2023-07-24T13:33:48;11.93;;;8.50;;
42514;SDS011;28144;49.920;18.730;2023-07-24T13:36:14;10.85;;;8.07;;
42514;SDS011;28144;49.920;18.730;2023-07-24T13:38:40;12.55;;;8.43;;
42514;SDS011;28144;49.920;18.730;2023-07-24T13:41:07;13.10;;;8.25;;
42514;SDS011;28144;49.920;18.730;2023-07-24T13:43:33;10.73;;;8.60;;
42514;SDS011;28144;49.920;18.730;2023-07-24T13:46:00;14.57;;;8.60;;
42514;SDS011;28144;49.920;18.730;2023-07-24T13:48:32;13.38;;;8.65;;
42514;SDS011;28144;49.920;18.730;2023-07-24T13:50:58;12.00;;;7.97;;
42514;SDS011;28144;49.920;18.730;2023-07-24T13:53:24;18.13;;;9.00;;
42514;SDS011;28144;49.920;18.730;2023-07-24T13:55:50;11.90;;;9.13;;
42514;SDS011;28144;49.920;18.730;2023-07-24T13:58:16;11.27;;;8.15;;
42514;SDS011;28144;49.920;18.730;2023-07-24T14:00:42;15.38;;;8.88;;
42514;SDS011;28144;49.920;18.730;2023-07-24T14:03:07;10.93;;;8.38;;
42514;SDS011;28144;49.920;18.730;2023-07-24T14:05:33;12.82;;;8.55;;
42514;SDS011;28144;49.920;18.730;2023-07-24T14:08:02;11.25;;;8.77;;
42514;SDS011;28144;49.920;18.730;2023-07-24T14:10:28;11.65;;;9.07;;
42514;SDS011;28144;49.920;18.730;2023-07-24T14:12:54;13.77;;;9.10;;
42514;SDS011;28144;49.920;18.730;2023-07-24T14:15:20;13.60;;;8.43;;
42514;SDS011;28144;49.920;18.730;2023-07-24T14:17:46;11.75;;;8.10;;
42514;SDS011;28144;49.920;18.730;2023-07-24T14:20:16;11.77;;;8.52;;
42514;SDS011;28144;49.920;18.730;2023-07-24T14:22:42;10.63;;;8.80;;
42514;SDS011;28144;49.920;18.730;2023-07-24T14:25:08;12.25;;;9.25;;
42514;SDS011;28144;49.920;18.730;2023-07-24T14:27:33;15.57;;;8.45;;
42514;SDS011;28144;49.920;18.730;2023-07-24T14:29:59;15.13;;;8.93;;
42514;SDS011;28144;49.920;18.730;2023-07-24T14:32:25;15.77;;;8.45;;
42514;SDS011;28144;49.920;18.730;2023-07-24T14:34:51;11.98;;;8.90;;
42514;SDS011;28144;49.920;18.730;2023-07-24T14:37:18;11.02;;;8.90;;
42514;SDS011;28144;49.920;18.730;2023-07-24T14:39:44;13.15;;;8.85;;
42514;SDS011;28144;49.920;18.730;2023-07-24T14:42:13;13.30;;;9.32;;
42514;SDS011;28144;49.920;18.730;2023-07-24T14:44:39;14.27;;;7.93;;
42514;SDS011;28144;49.920;18.730;2023-07-24T14:47:05;11.98;;;9.00;;
42514;SDS011;28144;49.920;18.730;2023-07-24T14:49:31;11.02;;;9.40;;
42514;SDS011;28144;49.920;18.730;2023-07-24T14:52:03;12.70;;;9.20;;
42514;SDS011;28144;49.920;18.730;2023-07-24T14:54:29;15.55;;;10.15;;
42514;SDS011;28144;49.920;18.730;2023-07-24T14:56:55;14.70;;;9.32;;
42514;SDS011;28144;49.920;18.730;2023-07-24T14:59:21;16.60;;;8.93;;
42514;SDS011;28144;49.920;18.730;2023-07-24T15:01:46;11.02;;;8.68;;
42514;SDS011;28144;49.920;18.730;2023-07-24T15:04:12;15.70;;;9.63;;
42514;SDS011;28144;49.920;18.730;2023-07-24T15:06:38;13.52;;;8.95;;
42514;SDS011;28144;49.920;18.730;2023-07-24T15:09:04;13.85;;;9.52;;
42514;SDS011;28144;49.920;18.730;2023-07-24T15:11:29;20.58;;;9.32;;
42514;SDS011;28144;49.920;18.730;2023-07-24T15:13:55;11.30;;;8.80;;
42514;SDS011;28144;49.920;18.730;2023-07-24T15:16:21;14.65;;;8.48;;
42514;SDS011;28144;49.920;18.730;2023-07-24T15:18:47;15.05;;;9.50;;
42514;SDS011;28144;49.920;18.730;2023-07-24T15:21:13;12.32;;;8.85;;
42514;SDS011;28144;49.920;18.730;2023-07-24T15:23:40;13.55;;;9.02;;
42514;SDS011;28144;49.920;18.730;2023-07-24T15:26:06;16.02;;;8.18;;
42514;SDS011;28144;49.920;18.730;2023-07-24T15:28:31;13.95;;;7.68;;
42514;SDS011;28144;49.920;18.730;2023-07-24T15:33:23;19.77;;;6.88;;